sensor_id;sensor_type;location;lat;lon;timestamp;P1;durP1;ratioP1;P2;durP2;ratioP2
25049;SDS011;13046;49.814;9.918;2024-03-22T00:01:46;24.60;;;16.92;;
25049;SDS011;13046;49.814;9.918;2024-03-22T00:04:13;26.02;;;18.08;;
25049;SDS011;13046;49.814;9.918;2024-03-22T00:06:43;22.92;;;16.65;;
25049;SDS011;13046;49.814;9.918;2024-03-22T00:09:09;25.42;;;17.48;;
25049;SDS011;13046;49.814;9.918;2024-03-22T00:11:36;24.50;;;17.58;;
25049;SDS011;13046;49.814;9.918;2024-03-22T00:14:02;19.08;;;15.32;;
25049;SDS011;13046;49.814;9.918;2024-03-22T00:16:29;22.58;;;17.02;;
25049;SDS011;13046;49.814;9.918;2024-03-22T00:18:55;24.52;;;17.80;;
25049;SDS011;13046;49.814;9.918;2024-03-22T00:21:21;23.83;;;17.48;;
25049;SDS011;13046;49.814;9.918;2024-03-22T00:23:48;25.17;;;17.30;;
25049;SDS011;13046;49.814;9.918;2024-03-22T00:26:14;24.52;;;16.23;;
25049;SDS011;13046;49.814;9.918;2024-03-22T00:28:40;23.90;;;16.35;;
25049;SDS011;13046;49.814;9.918;2024-03-22T00:31:06;22.13;;;15.57;;
25049;SDS011;13046;49.814;9.918;2024-03-22T00:33:33;21.67;;;16.15;;
25049;SDS011;13046;49.814;9.918;2024-03-22T00:35:59;22.25;;;16.77;;
25049;SDS011;13046;49.814;9.918;2024-03-22T00:38:25;25.52;;;17.92;;
25049;SDS011;13046;49.814;9.918;2024-03-22T00:40:52;23.50;;;16.08;;
25049;SDS011;13046;49.814;9.918;2024-03-22T00:43:19;24.08;;;16.65;;
25049;SDS011;13046;49.814;9.918;2024-03-22T00:45:45;23.38;;;16.95;;
25049;SDS011;13046;49.814;9.918;2024-03-22T00:48:11;22.88;;;16.67;;
25049;SDS011;13046;49.814;9.918;2024-03-22T00:50:37;23.65;;;15.77;;
25049;SDS011;13046;49.814;9.918;2024-03-22T00:53:04;25.75;;;17.15;;
25049;SDS011;13046;49.814;9.918;2024-03-22T00:55:31;24.88;;;15.93;;
25049;SDS011;13046;49.814;9.918;2024-03-22T00:57:57;24.23;;;17.60;;
25049;SDS011;13046;49.814;9.918;2024-03-22T01:00:24;26.38;;;17.70;;
25049;SDS011;13046;49.814;9.918;2024-03-22T01:02:50;20.52;;;15.23;;
25049;SDS011;13046;49.814;9.918;2024-03-22T01:05:16;26.88;;;16.67;;
25049;SDS011;13046;49.814;9.918;2024-03-22T01:07:43;20.88;;;14.73;;
25049;SDS011;13046;49.814;9.918;2024-03-22T01:10:12;22.70;;;15.18;;
25049;SDS011;13046;49.814;9.918;2024-03-22T01:12:38;24.02;;;16.00;;
25049;SDS011;13046;49.814;9.918;2024-03-22T01:15:05;24.70;;;16.83;;
25049;SDS011;13046;49.814;9.918;2024-03-22T01:17:32;26.90;;;15.90;;
25049;SDS011;13046;49.814;9.918;2024-03-22T01:19:58;24.55;;;16.20;;
25049;SDS011;13046;49.814;9.918;2024-03-22T01:22:24;26.38;;;16.48;;
25049;SDS011;13046;49.814;9.918;2024-03-22T01:24:50;24.25;;;16.90;;
25049;SDS011;13046;49.814;9.918;2024-03-22T01:27:16;26.38;;;16.05;;
25049;SDS011;13046;49.814;9.918;2024-03-22T01:29:43;24.55;;;17.58;;
25049;SDS011;13046;49.814;9.918;2024-03-22T01:32:09;25.33;;;17.08;;
25049;SDS011;13046;49.814;9.918;2024-03-22T01:34:35;25.98;;;18.55;;
25049;SDS011;13046;49.814;9.918;2024-03-22T01:37:01;23.67;;;15.63;;
25049;SDS011;13046;49.814;9.918;2024-03-22T01:39:28;23.75;;;15.55;;
25049;SDS011;13046;49.814;9.918;2024-03-22T01:41:54;27.35;;;17.25;;
25049;SDS011;13046;49.814;9.918;2024-03-22T01:44:26;21.90;;;15.77;;
25049;SDS011;13046;49.814;9.918;2024-03-22T01:46:52;32.40;;;16.45;;
25049;SDS011;13046;49.814;9.918;2024-03-22T01:49:19;28.60;;;16.85;;
25049;SDS011;13046;49.814;9.918;2024-03-22T01:51:45;26.15;;;16.70;;
25049;SDS011;13046;49.814;9.918;2024-03-22T01:54:11;24.38;;;17.20;;
25049;SDS011;13046;49.814;9.918;2024-03-22T01:56:37;25.35;;;17.05;;
25049;SDS011;13046;49.814;9.918;2024-03-22T01:59:04;23.63;;;16.70;;
25049;SDS011;13046;49.814;9.918;2024-03-22T02:01:32;23.90;;;16.75;;
25049;SDS011;13046;49.814;9.918;2024-03-22T02:03:59;25.55;;;16.27;;
25049;SDS011;13046;49.814;9.918;2024-03-22T02:06:25;25.67;;;15.30;;
25049;SDS011;13046;49.814;9.918;2024-03-22T02:08:52;27.20;;;16.40;;
25049;SDS011;13046;49.814;9.918;2024-03-22T02:11:18;27.55;;;16.75;;
25049;SDS011;13046;49.814;9.918;2024-03-22T02:13:44;23.60;;;15.70;;
25049;SDS011;13046;49.814;9.918;2024-03-22T02:16:11;28.60;;;17.00;;
25049;SDS011;13046;49.814;9.918;2024-03-22T02:18:37;23.30;;;16.80;;
25049;SDS011;13046;49.814;9.918;2024-03-22T02:21:03;21.70;;;15.77;;
25049;SDS011;13046;49.814;9.918;2024-03-22T02:23:32;23.35;;;15.45;;
25049;SDS011;13046;49.814;9.918;2024-03-22T02:25:59;23.52;;;16.17;;
25049;SDS011;13046;49.814;9.918;2024-03-22T02:28:26;22.67;;;16.10;;
25049;SDS011;13046;49.814;9.918;2024-03-22T02:30:52;25.75;;;15.43;;
25049;SDS011;13046;49.814;9.918;2024-03-22T02:33:18;24.80;;;16.33;;
25049;SDS011;13046;49.814;9.918;2024-03-22T02:35:48;23.40;;;15.45;;
25049;SDS011;13046;49.814;9.918;2024-03-22T02:38:14;21.52;;;15.10;;
25049;SDS011;13046;49.814;9.918;2024-03-22T02:40:40;25.20;;;16.00;;
25049;SDS011;13046;49.814;9.918;2024-03-22T02:43:06;23.55;;;16.10;;
25049;SDS011;13046;49.814;9.918;2024-03-22T02:45:32;25.05;;;16.63;;
25049;SDS011;13046;49.814;9.918;2024-03-22T02:47:59;24.15;;;15.30;;
25049;SDS011;13046;49.814;9.918;2024-03-22T02:50:25;20.75;;;15.38;;
25049;SDS011;13046;49.814;9.918;2024-03-22T02:52:51;24.15;;;14.93;;
25049;SDS011;13046;49.814;9.918;2024-03-22T02:55:17;21.25;;;15.55;;
25049;SDS011;13046;49.814;9.918;2024-03-22T02:57:43;22.65;;;15.18;;
25049;SDS011;13046;49.814;9.918;2024-03-22T03:00:10;23.95;;;16.63;;
25049;SDS011;13046;49.814;9.918;2024-03-22T03:02:36;28.30;;;17.67;;
25049;SDS011;13046;49.814;9.918;2024-03-22T03:05:02;24.42;;;16.23;;
25049;SDS011;13046;49.814;9.918;2024-03-22T03:07:29;24.40;;;16.83;;
25049;SDS011;13046;49.814;9.918;2024-03-22T03:09:55;22.63;;;15.38;;
25049;SDS011;13046;49.814;9.918;2024-03-22T03:12:21;25.83;;;17.25;;
25049;SDS011;13046;49.814;9.918;2024-03-22T03:14:47;21.60;;;14.43;;
25049;SDS011;13046;49.814;9.918;2024-03-22T03:17:13;25.85;;;17.15;;
25049;SDS011;13046;49.814;9.918;2024-03-22T03:19:39;26.33;;;17.88;;
25049;SDS011;13046;49.814;9.918;2024-03-22T03:22:06;23.15;;;15.57;;
25049;SDS011;13046;49.814;9.918;2024-03-22T03:24:32;24.15;;;15.35;;
25049;SDS011;13046;49.814;9.918;2024-03-22T03:26:58;24.88;;;16.40;;
25049;SDS011;13046;49.814;9.918;2024-03-22T03:29:24;28.88;;;17.38;;
25049;SDS011;13046;49.814;9.918;2024-03-22T03:31:50;25.05;;;17.88;;
25049;SDS011;13046;49.814;9.918;2024-03-22T03:34:16;26.60;;;15.80;;
25049;SDS011;13046;49.814;9.918;2024-03-22T03:36:42;24.05;;;16.15;;
25049;SDS011;13046;49.814;9.918;2024-03-22T03:39:09;26.98;;;17.13;;
25049;SDS011;13046;49.814;9.918;2024-03-22T03:41:35;24.55;;;15.65;;
25049;SDS011;13046;49.814;9.918;2024-03-22T03:44:01;26.08;;;16.60;;
25049;SDS011;13046;49.814;9.918;2024-03-22T03:46:27;28.67;;;17.33;;
25049;SDS011;13046;49.814;9.918;2024-03-22T03:48:53;26.98;;;17.02;;
25049;SDS011;13046;49.814;9.918;2024-03-22T03:51:20;24.63;;;17.10;;
25049;SDS011;13046;49.814;9.918;2024-03-22T03:53:46;31.05;;;17.60;;
25049;SDS011;13046;49.814;9.918;2024-03-22T03:56:12;25.60;;;16.00;;
25049;SDS011;13046;49.814;9.918;2024-03-22T03:58:38;26.10;;;17.08;;
25049;SDS011;13046;49.814;9.918;2024-03-22T04:01:08;29.67;;;17.05;;
25049;SDS011;13046;49.814;9.918;2024-03-22T04:03:34;26.50;;;17.35;;
25049;SDS011;13046;49.814;9.918;2024-03-22T04:06:00;24.52;;;15.30;;
25049;SDS011;13046;49.814;9.918;2024-03-22T04:08:27;24.30;;;15.52;;
25049;SDS011;13046;49.814;9.918;2024-03-22T04:10:56;27.42;;;15.50;;
25049;SDS011;13046;49.814;9.918;2024-03-22T04:13:26;24.88;;;17.15;;
25049;SDS011;13046;49.814;9.918;2024-03-22T04:15:52;31.05;;;17.10;;
25049;SDS011;13046;49.814;9.918;2024-03-22T04:18:19;30.98;;;18.45;;
25049;SDS011;13046;49.814;9.918;2024-03-22T04:20:55;29.88;;;18.95;;
25049;SDS011;13046;49.814;9.918;2024-03-22T04:23:21;29.27;;;18.52;;
25049;SDS011;13046;49.814;9.918;2024-03-22T04:25:52;26.55;;;17.35;;
25049;SDS011;13046;49.814;9.918;2024-03-22T04:28:18;28.02;;;16.38;;
25049;SDS011;13046;49.814;9.918;2024-03-22T04:30:53;31.10;;;17.80;;
25049;SDS011;13046;49.814;9.918;2024-03-22T04:33:19;24.17;;;15.82;;
25049;SDS011;13046;49.814;9.918;2024-03-22T04:35:45;25.27;;;15.73;;
25049;SDS011;13046;49.814;9.918;2024-03-22T04:38:12;23.77;;;16.35;;
25049;SDS011;13046;49.814;9.918;2024-03-22T04:40:38;27.55;;;16.65;;
25049;SDS011;13046;49.814;9.918;2024-03-22T04:43:04;27.50;;;17.30;;
25049;SDS011;13046;49.814;9.918;2024-03-22T04:45:30;28.80;;;17.00;;
25049;SDS011;13046;49.814;9.918;2024-03-22T04:47:56;29.30;;;16.88;;
25049;SDS011;13046;49.814;9.918;2024-03-22T04:50:22;27.40;;;17.25;;
25049;SDS011;13046;49.814;9.918;2024-03-22T04:52:48;29.02;;;16.45;;
25049;SDS011;13046;49.814;9.918;2024-03-22T04:55:14;26.60;;;16.83;;
25049;SDS011;13046;49.814;9.918;2024-03-22T04:57:41;28.80;;;18.65;;
25049;SDS011;13046;49.814;9.918;2024-03-22T05:00:07;25.08;;;16.42;;
25049;SDS011;13046;49.814;9.918;2024-03-22T05:02:34;29.83;;;19.73;;
25049;SDS011;13046;49.814;9.918;2024-03-22T05:05:00;31.65;;;21.05;;
25049;SDS011;13046;49.814;9.918;2024-03-22T05:07:26;32.38;;;20.13;;
25049;SDS011;13046;49.814;9.918;2024-03-22T05:09:52;25.50;;;17.42;;
25049;SDS011;13046;49.814;9.918;2024-03-22T05:12:18;28.85;;;18.70;;
25049;SDS011;13046;49.814;9.918;2024-03-22T05:14:44;33.40;;;19.50;;
25049;SDS011;13046;49.814;9.918;2024-03-22T05:17:11;25.85;;;16.92;;
25049;SDS011;13046;49.814;9.918;2024-03-22T05:19:37;30.17;;;17.45;;
25049;SDS011;13046;49.814;9.918;2024-03-22T05:22:03;27.33;;;17.83;;
25049;SDS011;13046;49.814;9.918;2024-03-22T05:24:29;34.17;;;19.23;;
25049;SDS011;13046;49.814;9.918;2024-03-22T05:26:58;30.15;;;18.88;;
25049;SDS011;13046;49.814;9.918;2024-03-22T05:29:25;28.80;;;20.83;;
25049;SDS011;13046;49.814;9.918;2024-03-22T05:31:51;28.25;;;17.83;;
25049;SDS011;13046;49.814;9.918;2024-03-22T05:34:17;25.23;;;16.30;;
25049;SDS011;13046;49.814;9.918;2024-03-22T05:36:45;29.63;;;17.92;;
25049;SDS011;13046;49.814;9.918;2024-03-22T05:39:11;29.25;;;18.33;;
25049;SDS011;13046;49.814;9.918;2024-03-22T05:41:37;30.70;;;18.45;;
25049;SDS011;13046;49.814;9.918;2024-03-22T05:44:04;29.65;;;17.83;;
25049;SDS011;13046;49.814;9.918;2024-03-22T05:46:30;32.42;;;18.88;;
25049;SDS011;13046;49.814;9.918;2024-03-22T05:48:57;30.00;;;19.10;;
25049;SDS011;13046;49.814;9.918;2024-03-22T05:51:24;33.28;;;17.65;;
25049;SDS011;13046;49.814;9.918;2024-03-22T05:53:50;29.80;;;19.42;;
25049;SDS011;13046;49.814;9.918;2024-03-22T05:56:16;32.17;;;19.50;;
25049;SDS011;13046;49.814;9.918;2024-03-22T05:58:42;29.63;;;18.63;;
25049;SDS011;13046;49.814;9.918;2024-03-22T06:01:09;37.72;;;26.10;;
25049;SDS011;13046;49.814;9.918;2024-03-22T06:03:35;30.17;;;17.58;;
25049;SDS011;13046;49.814;9.918;2024-03-22T06:06:01;26.33;;;17.73;;
25049;SDS011;13046;49.814;9.918;2024-03-22T06:08:28;29.65;;;19.42;;
25049;SDS011;13046;49.814;9.918;2024-03-22T06:10:56;31.02;;;19.08;;
25049;SDS011;13046;49.814;9.918;2024-03-22T06:13:23;32.65;;;19.27;;
25049;SDS011;13046;49.814;9.918;2024-03-22T06:15:49;30.48;;;19.77;;
25049;SDS011;13046;49.814;9.918;2024-03-22T06:18:15;33.50;;;17.15;;
25049;SDS011;13046;49.814;9.918;2024-03-22T06:20:41;29.73;;;19.35;;
25049;SDS011;13046;49.814;9.918;2024-03-22T06:23:08;34.13;;;18.48;;
25049;SDS011;13046;49.814;9.918;2024-03-22T06:25:35;32.45;;;20.77;;
25049;SDS011;13046;49.814;9.918;2024-03-22T06:28:01;35.15;;;21.13;;
25049;SDS011;13046;49.814;9.918;2024-03-22T06:30:27;35.35;;;21.45;;
25049;SDS011;13046;49.814;9.918;2024-03-22T06:32:54;36.60;;;21.42;;
25049;SDS011;13046;49.814;9.918;2024-03-22T06:35:20;32.75;;;21.52;;
25049;SDS011;13046;49.814;9.918;2024-03-22T06:37:46;37.42;;;21.27;;
25049;SDS011;13046;49.814;9.918;2024-03-22T06:40:13;30.48;;;19.42;;
25049;SDS011;13046;49.814;9.918;2024-03-22T06:42:40;32.42;;;19.83;;
25049;SDS011;13046;49.814;9.918;2024-03-22T06:45:06;35.13;;;19.27;;
25049;SDS011;13046;49.814;9.918;2024-03-22T06:47:32;38.15;;;21.42;;
25049;SDS011;13046;49.814;9.918;2024-03-22T06:49:58;33.95;;;20.92;;
25049;SDS011;13046;49.814;9.918;2024-03-22T06:52:25;33.58;;;20.83;;
25049;SDS011;13046;49.814;9.918;2024-03-22T06:54:51;35.65;;;20.05;;
25049;SDS011;13046;49.814;9.918;2024-03-22T06:57:18;34.67;;;20.67;;
25049;SDS011;13046;49.814;9.918;2024-03-22T06:59:44;38.10;;;21.83;;
25049;SDS011;13046;49.814;9.918;2024-03-22T07:02:10;38.22;;;20.05;;
25049;SDS011;13046;49.814;9.918;2024-03-22T07:04:39;38.22;;;22.10;;
25049;SDS011;13046;49.814;9.918;2024-03-22T07:07:05;37.33;;;23.00;;
25049;SDS011;13046;49.814;9.918;2024-03-22T07:09:34;36.58;;;23.30;;
25049;SDS011;13046;49.814;9.918;2024-03-22T07:12:01;40.83;;;25.38;;
25049;SDS011;13046;49.814;9.918;2024-03-22T07:14:27;36.13;;;22.92;;
25049;SDS011;13046;49.814;9.918;2024-03-22T07:16:53;35.78;;;23.77;;
25049;SDS011;13046;49.814;9.918;2024-03-22T07:19:20;39.97;;;25.48;;
25049;SDS011;13046;49.814;9.918;2024-03-22T07:21:46;43.33;;;25.90;;
25049;SDS011;13046;49.814;9.918;2024-03-22T07:24:12;47.30;;;27.73;;
25049;SDS011;13046;49.814;9.918;2024-03-22T07:26:38;41.00;;;25.30;;
25049;SDS011;13046;49.814;9.918;2024-03-22T07:29:05;42.15;;;26.17;;
25049;SDS011;13046;49.814;9.918;2024-03-22T07:31:31;39.45;;;25.33;;
25049;SDS011;13046;49.814;9.918;2024-03-22T07:33:57;38.70;;;24.15;;
25049;SDS011;13046;49.814;9.918;2024-03-22T07:36:23;34.70;;;24.88;;
25049;SDS011;13046;49.814;9.918;2024-03-22T07:38:51;35.78;;;24.08;;
25049;SDS011;13046;49.814;9.918;2024-03-22T07:41:18;35.00;;;23.38;;
25049;SDS011;13046;49.814;9.918;2024-03-22T07:43:44;37.28;;;23.80;;
25049;SDS011;13046;49.814;9.918;2024-03-22T07:46:10;35.72;;;23.73;;
25049;SDS011;13046;49.814;9.918;2024-03-22T07:48:37;36.47;;;22.05;;
25049;SDS011;13046;49.814;9.918;2024-03-22T07:51:03;39.75;;;27.05;;
25049;SDS011;13046;49.814;9.918;2024-03-22T07:53:29;36.58;;;26.05;;
25049;SDS011;13046;49.814;9.918;2024-03-22T07:55:55;35.97;;;23.33;;
25049;SDS011;13046;49.814;9.918;2024-03-22T07:58:21;32.45;;;21.60;;
25049;SDS011;13046;49.814;9.918;2024-03-22T08:00:48;31.13;;;21.65;;
25049;SDS011;13046;49.814;9.918;2024-03-22T08:03:15;35.67;;;23.10;;
25049;SDS011;13046;49.814;9.918;2024-03-22T08:05:41;35.80;;;26.00;;
25049;SDS011;13046;49.814;9.918;2024-03-22T08:08:08;35.55;;;24.25;;
25049;SDS011;13046;49.814;9.918;2024-03-22T08:10:34;35.08;;;22.92;;
25049;SDS011;13046;49.814;9.918;2024-03-22T08:13:00;35.03;;;23.42;;
25049;SDS011;13046;49.814;9.918;2024-03-22T08:15:26;30.85;;;20.52;;
25049;SDS011;13046;49.814;9.918;2024-03-22T08:17:52;31.80;;;22.27;;
25049;SDS011;13046;49.814;9.918;2024-03-22T08:20:19;33.28;;;22.58;;
25049;SDS011;13046;49.814;9.918;2024-03-22T08:22:45;30.00;;;21.88;;
25049;SDS011;13046;49.814;9.918;2024-03-22T08:25:11;32.80;;;19.75;;
25049;SDS011;13046;49.814;9.918;2024-03-22T08:27:42;31.50;;;23.13;;
25049;SDS011;13046;49.814;9.918;2024-03-22T08:30:09;31.40;;;21.35;;
25049;SDS011;13046;49.814;9.918;2024-03-22T08:32:35;27.92;;;21.00;;
25049;SDS011;13046;49.814;9.918;2024-03-22T08:35:02;28.33;;;19.48;;
25049;SDS011;13046;49.814;9.918;2024-03-22T08:37:29;35.03;;;22.55;;
25049;SDS011;13046;49.814;9.918;2024-03-22T08:39:55;29.73;;;20.90;;
25049;SDS011;13046;49.814;9.918;2024-03-22T08:42:21;24.75;;;19.60;;
25049;SDS011;13046;49.814;9.918;2024-03-22T08:44:48;27.27;;;20.00;;
25049;SDS011;13046;49.814;9.918;2024-03-22T08:47:14;23.40;;;17.75;;
25049;SDS011;13046;49.814;9.918;2024-03-22T08:49:40;26.20;;;17.15;;
25049;SDS011;13046;49.814;9.918;2024-03-22T08:52:08;26.52;;;18.05;;
25049;SDS011;13046;49.814;9.918;2024-03-22T08:54:35;26.65;;;18.02;;
25049;SDS011;13046;49.814;9.918;2024-03-22T08:57:01;24.88;;;16.50;;
25049;SDS011;13046;49.814;9.918;2024-03-22T08:59:27;28.33;;;17.58;;
25049;SDS011;13046;49.814;9.918;2024-03-22T09:01:53;20.63;;;16.20;;
25049;SDS011;13046;49.814;9.918;2024-03-22T09:04:19;20.73;;;15.35;;
25049;SDS011;13046;49.814;9.918;2024-03-22T09:06:45;20.60;;;14.27;;
25049;SDS011;13046;49.814;9.918;2024-03-22T09:09:12;23.27;;;15.35;;
25049;SDS011;13046;49.814;9.918;2024-03-22T09:11:38;19.25;;;14.07;;
25049;SDS011;13046;49.814;9.918;2024-03-22T09:14:04;19.95;;;15.07;;
25049;SDS011;13046;49.814;9.918;2024-03-22T09:16:30;16.35;;;14.43;;
25049;SDS011;13046;49.814;9.918;2024-03-22T09:18:57;16.33;;;10.55;;
25049;SDS011;13046;49.814;9.918;2024-03-22T09:21:23;15.27;;;10.23;;
25049;SDS011;13046;49.814;9.918;2024-03-22T09:23:50;13.82;;;10.32;;
25049;SDS011;13046;49.814;9.918;2024-03-22T09:26:16;13.75;;;10.55;;
25049;SDS011;13046;49.814;9.918;2024-03-22T09:28:42;14.77;;;10.63;;
25049;SDS011;13046;49.814;9.918;2024-03-22T09:31:11;13.52;;;10.05;;
25049;SDS011;13046;49.814;9.918;2024-03-22T09:33:37;10.65;;;8.00;;
25049;SDS011;13046;49.814;9.918;2024-03-22T09:36:03;9.13;;;7.22;;
25049;SDS011;13046;49.814;9.918;2024-03-22T09:38:30;11.48;;;8.15;;
25049;SDS011;13046;49.814;9.918;2024-03-22T09:40:57;11.15;;;8.27;;
25049;SDS011;13046;49.814;9.918;2024-03-22T09:43:23;8.20;;;6.47;;
25049;SDS011;13046;49.814;9.918;2024-03-22T09:45:49;7.80;;;6.45;;
25049;SDS011;13046;49.814;9.918;2024-03-22T09:48:17;10.95;;;6.88;;
25049;SDS011;13046;49.814;9.918;2024-03-22T09:50:44;9.88;;;6.47;;
25049;SDS011;13046;49.814;9.918;2024-03-22T09:53:13;9.02;;;6.10;;
25049;SDS011;13046;49.814;9.918;2024-03-22T09:55:39;7.68;;;6.38;;
25049;SDS011;13046;49.814;9.918;2024-03-22T09:58:08;11.55;;;7.88;;
25049;SDS011;13046;49.814;9.918;2024-03-22T10:00:34;9.43;;;6.75;;
25049;SDS011;13046;49.814;9.918;2024-03-22T10:03:01;10.63;;;6.00;;
25049;SDS011;13046;49.814;9.918;2024-03-22T10:05:29;8.55;;;6.78;;
25049;SDS011;13046;49.814;9.918;2024-03-22T10:07:55;7.72;;;6.57;;
25049;SDS011;13046;49.814;9.918;2024-03-22T10:10:21;12.65;;;7.85;;
25049;SDS011;13046;49.814;9.918;2024-03-22T10:12:48;6.57;;;5.53;;
25049;SDS011;13046;49.814;9.918;2024-03-22T10:15:14;10.27;;;6.80;;
25049;SDS011;13046;49.814;9.918;2024-03-22T10:17:41;8.32;;;6.03;;
25049;SDS011;13046;49.814;9.918;2024-03-22T10:20:08;6.18;;;5.57;;
25049;SDS011;13046;49.814;9.918;2024-03-22T10:22:48;9.20;;;6.38;;
25049;SDS011;13046;49.814;9.918;2024-03-22T10:25:14;9.18;;;5.40;;
25049;SDS011;13046;49.814;9.918;2024-03-22T10:27:41;9.43;;;6.35;;
25049;SDS011;13046;49.814;9.918;2024-03-22T10:30:08;5.72;;;5.13;;
25049;SDS011;13046;49.814;9.918;2024-03-22T10:32:35;6.80;;;4.97;;
25049;SDS011;13046;49.814;9.918;2024-03-22T10:35:04;7.30;;;5.43;;
25049;SDS011;13046;49.814;9.918;2024-03-22T10:37:35;6.53;;;4.88;;
25049;SDS011;13046;49.814;9.918;2024-03-22T10:40:01;7.85;;;5.57;;
25049;SDS011;13046;49.814;9.918;2024-03-22T10:42:36;6.82;;;5.80;;
25049;SDS011;13046;49.814;9.918;2024-03-22T10:45:03;7.43;;;5.50;;
25049;SDS011;13046;49.814;9.918;2024-03-22T10:47:31;7.65;;;5.00;;
25049;SDS011;13046;49.814;9.918;2024-03-22T10:52:31;4.65;;;4.13;;
25049;SDS011;13046;49.814;9.918;2024-03-22T10:54:59;5.45;;;4.38;;
25049;SDS011;13046;49.814;9.918;2024-03-22T10:57:25;8.32;;;5.65;;
25049;SDS011;13046;49.814;9.918;2024-03-22T10:59:54;6.30;;;3.45;;
25049;SDS011;13046;49.814;9.918;2024-03-22T11:02:20;5.47;;;4.10;;
25049;SDS011;13046;49.814;9.918;2024-03-22T11:04:58;5.13;;;2.58;;
25049;SDS011;13046;49.814;9.918;2024-03-22T11:07:30;6.03;;;2.08;;
25049;SDS011;13046;49.814;9.918;2024-03-22T11:09:57;1.98;;;1.85;;
25049;SDS011;13046;49.814;9.918;2024-03-22T11:12:24;3.35;;;2.60;;
25049;SDS011;13046;49.814;9.918;2024-03-22T11:14:51;2.22;;;1.95;;
25049;SDS011;13046;49.814;9.918;2024-03-22T11:17:18;2.10;;;1.90;;
25049;SDS011;13046;49.814;9.918;2024-03-22T11:19:44;3.08;;;2.00;;
25049;SDS011;13046;49.814;9.918;2024-03-22T11:22:10;2.47;;;1.75;;
25049;SDS011;13046;49.814;9.918;2024-03-22T11:24:38;3.50;;;1.95;;
25049;SDS011;13046;49.814;9.918;2024-03-22T11:27:04;4.13;;;2.30;;
25049;SDS011;13046;49.814;9.918;2024-03-22T11:29:30;2.65;;;2.20;;
25049;SDS011;13046;49.814;9.918;2024-03-22T11:31:57;2.63;;;2.42;;
25049;SDS011;13046;49.814;9.918;2024-03-22T11:34:23;3.40;;;2.50;;
25049;SDS011;13046;49.814;9.918;2024-03-22T11:36:49;4.80;;;3.50;;
25049;SDS011;13046;49.814;9.918;2024-03-22T11:39:15;3.63;;;2.30;;
25049;SDS011;13046;49.814;9.918;2024-03-22T11:41:43;5.43;;;2.00;;
25049;SDS011;13046;49.814;9.918;2024-03-22T11:44:09;1.70;;;1.50;;
25049;SDS011;13046;49.814;9.918;2024-03-22T11:46:36;1.70;;;1.60;;
25049;SDS011;13046;49.814;9.918;2024-03-22T11:49:03;2.10;;;1.90;;
25049;SDS011;13046;49.814;9.918;2024-03-22T11:51:29;2.10;;;1.50;;
25049;SDS011;13046;49.814;9.918;2024-03-22T11:53:56;3.53;;;1.38;;
25049;SDS011;13046;49.814;9.918;2024-03-22T11:56:24;3.10;;;1.73;;
25049;SDS011;13046;49.814;9.918;2024-03-22T11:58:57;2.55;;;1.77;;
25049;SDS011;13046;49.814;9.918;2024-03-22T12:01:24;3.65;;;1.85;;
25049;SDS011;13046;49.814;9.918;2024-03-22T12:03:50;2.92;;;1.50;;
25049;SDS011;13046;49.814;9.918;2024-03-22T12:06:16;1.73;;;1.13;;
25049;SDS011;13046;49.814;9.918;2024-03-22T12:08:43;1.60;;;1.40;;
25049;SDS011;13046;49.814;9.918;2024-03-22T12:11:09;1.70;;;1.35;;
25049;SDS011;13046;49.814;9.918;2024-03-22T12:13:39;2.95;;;1.50;;
25049;SDS011;13046;49.814;9.918;2024-03-22T12:16:06;2.50;;;1.88;;
25049;SDS011;13046;49.814;9.918;2024-03-22T12:18:32;1.83;;;1.52;;
25049;SDS011;13046;49.814;9.918;2024-03-22T12:20:59;2.35;;;1.45;;
25049;SDS011;13046;49.814;9.918;2024-03-22T12:23:25;2.05;;;1.15;;
25049;SDS011;13046;49.814;9.918;2024-03-22T12:25:51;1.52;;;1.40;;
25049;SDS011;13046;49.814;9.918;2024-03-22T12:28:18;2.05;;;1.95;;
25049;SDS011;13046;49.814;9.918;2024-03-22T12:30:44;1.30;;;1.20;;
25049;SDS011;13046;49.814;9.918;2024-03-22T12:33:10;0.93;;;0.93;;
25049;SDS011;13046;49.814;9.918;2024-03-22T12:35:37;1.67;;;1.35;;
25049;SDS011;13046;49.814;9.918;2024-03-22T12:38:04;2.28;;;1.35;;
25049;SDS011;13046;49.814;9.918;2024-03-22T12:40:30;1.30;;;1.20;;
25049;SDS011;13046;49.814;9.918;2024-03-22T12:42:58;1.65;;;1.33;;
25049;SDS011;13046;49.814;9.918;2024-03-22T12:45:24;2.70;;;2.05;;
25049;SDS011;13046;49.814;9.918;2024-03-22T12:47:51;1.30;;;1.20;;
25049;SDS011;13046;49.814;9.918;2024-03-22T12:50:17;0.80;;;0.80;;
25049;SDS011;13046;49.814;9.918;2024-03-22T12:52:43;1.98;;;1.23;;
25049;SDS011;13046;49.814;9.918;2024-03-22T12:55:10;1.17;;;1.10;;
25049;SDS011;13046;49.814;9.918;2024-03-22T12:57:36;2.33;;;1.48;;
25049;SDS011;13046;49.814;9.918;2024-03-22T13:00:03;2.08;;;1.60;;
25049;SDS011;13046;49.814;9.918;2024-03-22T13:02:31;3.05;;;1.58;;
25049;SDS011;13046;49.814;9.918;2024-03-22T13:04:58;2.80;;;1.80;;
25049;SDS011;13046;49.814;9.918;2024-03-22T13:07:24;3.45;;;1.92;;
25049;SDS011;13046;49.814;9.918;2024-03-22T13:09:50;2.13;;;1.85;;
25049;SDS011;13046;49.814;9.918;2024-03-22T13:12:17;1.40;;;1.20;;
25049;SDS011;13046;49.814;9.918;2024-03-22T13:14:43;1.65;;;1.50;;
25049;SDS011;13046;49.814;9.918;2024-03-22T13:17:09;2.55;;;1.63;;
25049;SDS011;13046;49.814;9.918;2024-03-22T13:19:35;1.73;;;1.40;;
25049;SDS011;13046;49.814;9.918;2024-03-22T13:22:01;2.47;;;2.25;;
25049;SDS011;13046;49.814;9.918;2024-03-22T13:24:27;2.53;;;2.05;;
25049;SDS011;13046;49.814;9.918;2024-03-22T13:26:54;3.28;;;2.72;;
25049;SDS011;13046;49.814;9.918;2024-03-22T13:29:20;4.30;;;2.92;;
25049;SDS011;13046;49.814;9.918;2024-03-22T13:31:46;3.25;;;2.80;;
25049;SDS011;13046;49.814;9.918;2024-03-22T13:34:12;6.32;;;3.50;;
25049;SDS011;13046;49.814;9.918;2024-03-22T13:36:39;7.10;;;3.60;;
25049;SDS011;13046;49.814;9.918;2024-03-22T13:39:05;5.35;;;4.00;;
25049;SDS011;13046;49.814;9.918;2024-03-22T13:41:35;5.28;;;4.68;;
25049;SDS011;13046;49.814;9.918;2024-03-22T13:44:01;8.27;;;5.00;;
25049;SDS011;13046;49.814;9.918;2024-03-22T13:46:33;5.45;;;4.88;;
25049;SDS011;13046;49.814;9.918;2024-03-22T13:49:02;7.32;;;5.07;;
25049;SDS011;13046;49.814;9.918;2024-03-22T13:51:30;7.28;;;6.10;;
25049;SDS011;13046;49.814;9.918;2024-03-22T13:53:57;6.93;;;5.65;;
25049;SDS011;13046;49.814;9.918;2024-03-22T13:56:23;7.45;;;5.97;;
25049;SDS011;13046;49.814;9.918;2024-03-22T13:58:49;7.10;;;6.40;;
25049;SDS011;13046;49.814;9.918;2024-03-22T14:01:15;7.15;;;5.50;;
25049;SDS011;13046;49.814;9.918;2024-03-22T14:03:42;6.35;;;5.70;;
25049;SDS011;13046;49.814;9.918;2024-03-22T14:06:08;7.50;;;5.00;;
25049;SDS011;13046;49.814;9.918;2024-03-22T14:08:34;5.82;;;5.28;;
25049;SDS011;13046;49.814;9.918;2024-03-22T14:11:00;5.10;;;4.30;;
25049;SDS011;13046;49.814;9.918;2024-03-22T14:13:26;5.93;;;3.45;;
25049;SDS011;13046;49.814;9.918;2024-03-22T14:15:52;5.63;;;3.20;;
25049;SDS011;13046;49.814;9.918;2024-03-22T14:18:18;7.35;;;3.15;;
25049;SDS011;13046;49.814;9.918;2024-03-22T14:20:45;3.30;;;2.95;;
25049;SDS011;13046;49.814;9.918;2024-03-22T14:23:11;2.90;;;2.60;;
25049;SDS011;13046;49.814;9.918;2024-03-22T14:25:37;3.78;;;2.35;;
25049;SDS011;13046;49.814;9.918;2024-03-22T14:28:03;3.22;;;2.78;;
25049;SDS011;13046;49.814;9.918;2024-03-22T14:30:31;4.00;;;3.15;;